sensor_id;sensor_type;location;lat;lon;timestamp;P1;durP1;ratioP1;P2;durP2;ratioP2
32138;SDS011;18644;48.700;9.210;2023-02-28T00:00:19;2.33;;;1.63;;
32138;SDS011;18644;48.700;9.210;2023-02-28T00:02:48;2.13;;;1.48;;
32138;SDS011;18644;48.700;9.210;2023-02-28T00:05:17;2.10;;;1.80;;
32138;SDS011;18644;48.700;9.210;2023-02-28T00:07:46;3.33;;;1.70;;
32138;SDS011;18644;48.700;9.210;2023-02-28T00:10:15;2.78;;;1.73;;
32138;SDS011;18644;48.700;9.210;2023-02-28T00:12:45;3.80;;;1.95;;
32138;SDS011;18644;48.700;9.210;2023-02-28T00:15:13;2.47;;;1.58;;
32138;SDS011;18644;48.700;9.210;2023-02-28T00:17:40;4.90;;;2.20;;
32138;SDS011;18644;48.700;9.210;2023-02-28T00:20:08;2.55;;;2.10;;
32138;SDS011;18644;48.700;9.210;2023-02-28T00:22:37;2.55;;;1.50;;
32138;SDS011;18644;48.700;9.210;2023-02-28T00:25:07;3.15;;;2.20;;
32138;SDS011;18644;48.700;9.210;2023-02-28T00:27:36;3.88;;;2.50;;
32138;SDS011;18644;48.700;9.210;2023-02-28T00:30:05;3.45;;;1.75;;
32138;SDS011;18644;48.700;9.210;2023-02-28T00:32:35;2.35;;;1.73;;
32138;SDS011;18644;48.700;9.210;2023-02-28T00:35:02;2.45;;;1.70;;
32138;SDS011;18644;48.700;9.210;2023-02-28T00:37:31;2.60;;;1.80;;
32138;SDS011;18644;48.700;9.210;2023-02-28T00:39:58;3.75;;;1.70;;
32138;SDS011;18644;48.700;9.210;2023-02-28T00:42:25;2.35;;;1.50;;
32138;SDS011;18644;48.700;9.210;2023-02-28T00:44:52;3.38;;;1.73;;
32138;SDS011;18644;48.700;9.210;2023-02-28T00:47:19;2.83;;;2.00;;
32138;SDS011;18644;48.700;9.210;2023-02-28T00:49:46;2.38;;;1.48;;
32138;SDS011;18644;48.700;9.210;2023-02-28T00:52:13;4.95;;;2.28;;
32138;SDS011;18644;48.700;9.210;2023-02-28T00:54:41;2.42;;;1.80;;
32138;SDS011;18644;48.700;9.210;2023-02-28T00:57:08;3.90;;;2.05;;
32138;SDS011;18644;48.700;9.210;2023-02-28T00:59:35;3.45;;;1.70;;
32138;SDS011;18644;48.700;9.210;2023-02-28T01:02:02;2.80;;;1.65;;
32138;SDS011;18644;48.700;9.210;2023-02-28T01:04:29;3.33;;;1.98;;
32138;SDS011;18644;48.700;9.210;2023-02-28T01:06:56;2.47;;;1.65;;
32138;SDS011;18644;48.700;9.210;2023-02-28T01:09:22;3.03;;;1.80;;
32138;SDS011;18644;48.700;9.210;2023-02-28T01:11:51;2.63;;;1.55;;
32138;SDS011;18644;48.700;9.210;2023-02-28T01:14:18;5.07;;;2.33;;
32138;SDS011;18644;48.700;9.210;2023-02-28T01:16:45;2.88;;;1.88;;
32138;SDS011;18644;48.700;9.210;2023-02-28T01:19:12;2.92;;;1.95;;
32138;SDS011;18644;48.700;9.210;2023-02-28T01:21:39;2.67;;;1.95;;
32138;SDS011;18644;48.700;9.210;2023-02-28T01:24:06;1.77;;;1.58;;
32138;SDS011;18644;48.700;9.210;2023-02-28T01:26:33;3.92;;;1.98;;
32138;SDS011;18644;48.700;9.210;2023-02-28T01:29:02;2.67;;;1.63;;
32138;SDS011;18644;48.700;9.210;2023-02-28T01:31:29;4.78;;;2.17;;
32138;SDS011;18644;48.700;9.210;2023-02-28T01:33:56;3.63;;;1.95;;
32138;SDS011;18644;48.700;9.210;2023-02-28T01:36:23;3.05;;;1.70;;
32138;SDS011;18644;48.700;9.210;2023-02-28T01:38:51;3.88;;;2.13;;
32138;SDS011;18644;48.700;9.210;2023-02-28T01:41:18;3.75;;;2.20;;
32138;SDS011;18644;48.700;9.210;2023-02-28T01:43:55;5.03;;;1.92;;
32138;SDS011;18644;48.700;9.210;2023-02-28T01:46:30;4.28;;;2.20;;
32138;SDS011;18644;48.700;9.210;2023-02-28T01:49:00;3.20;;;2.05;;
32138;SDS011;18644;48.700;9.210;2023-02-28T01:51:33;2.20;;;1.75;;
32138;SDS011;18644;48.700;9.210;2023-02-28T01:54:05;2.67;;;1.95;;
32138;SDS011;18644;48.700;9.210;2023-02-28T01:56:38;2.55;;;1.85;;
32138;SDS011;18644;48.700;9.210;2023-02-28T01:59:12;2.58;;;2.00;;
32138;SDS011;18644;48.700;9.210;2023-02-28T02:01:47;3.70;;;2.35;;
32138;SDS011;18644;48.700;9.210;2023-02-28T02:04:14;3.03;;;1.83;;
32138;SDS011;18644;48.700;9.210;2023-02-28T02:06:42;5.00;;;2.75;;
32138;SDS011;18644;48.700;9.210;2023-02-28T02:09:12;2.87;;;2.10;;
32138;SDS011;18644;48.700;9.210;2023-02-28T02:11:39;2.80;;;1.83;;
32138;SDS011;18644;48.700;9.210;2023-02-28T02:17:16;2.47;;;2.10;;
32138;SDS011;18644;48.700;9.210;2023-02-28T02:20:11;3.25;;;1.98;;
32138;SDS011;18644;48.700;9.210;2023-02-28T02:29:21;2.63;;;1.88;;
32138;SDS011;18644;48.700;9.210;2023-02-28T02:35:13;3.45;;;2.10;;
32138;SDS011;18644;48.700;9.210;2023-02-28T02:37:48;2.78;;;1.83;;
32138;SDS011;18644;48.700;9.210;2023-02-28T02:40:19;3.42;;;2.10;;
32138;SDS011;18644;48.700;9.210;2023-02-28T02:42:50;4.82;;;2.60;;
32138;SDS011;18644;48.700;9.210;2023-02-28T02:45:23;6.38;;;2.28;;
32138;SDS011;18644;48.700;9.210;2023-02-28T02:47:53;3.03;;;2.38;;
32138;SDS011;18644;48.700;9.210;2023-02-28T02:50:25;4.50;;;2.10;;
32138;SDS011;18644;48.700;9.210;2023-02-28T02:52:57;3.25;;;2.20;;
32138;SDS011;18644;48.700;9.210;2023-02-28T02:55:27;3.03;;;2.17;;
32138;SDS011;18644;48.700;9.210;2023-02-28T02:57:57;3.17;;;2.20;;
32138;SDS011;18644;48.700;9.210;2023-02-28T03:00:26;6.63;;;2.00;;
32138;SDS011;18644;48.700;9.210;2023-02-28T03:02:58;3.75;;;2.30;;
32138;SDS011;18644;48.700;9.210;2023-02-28T03:05:29;2.70;;;2.13;;
32138;SDS011;18644;48.700;9.210;2023-02-28T03:08:02;3.08;;;2.10;;
32138;SDS011;18644;48.700;9.210;2023-02-28T03:10:35;3.47;;;2.20;;
32138;SDS011;18644;48.700;9.210;2023-02-28T03:13:11;3.35;;;2.22;;
32138;SDS011;18644;48.700;9.210;2023-02-28T03:16:10;2.50;;;2.10;;
32138;SDS011;18644;48.700;9.210;2023-02-28T03:18:58;3.67;;;2.10;;
32138;SDS011;18644;48.700;9.210;2023-02-28T03:21:42;4.50;;;2.20;;
32138;SDS011;18644;48.700;9.210;2023-02-28T03:24:20;3.42;;;2.10;;
32138;SDS011;18644;48.700;9.210;2023-02-28T03:26:54;3.92;;;2.55;;
32138;SDS011;18644;48.700;9.210;2023-02-28T03:29:28;3.58;;;2.45;;
32138;SDS011;18644;48.700;9.210;2023-02-28T03:32:01;3.22;;;2.10;;
32138;SDS011;18644;48.700;9.210;2023-02-28T03:34:39;4.97;;;2.72;;
32138;SDS011;18644;48.700;9.210;2023-02-28T03:37:15;3.90;;;2.53;;
32138;SDS011;18644;48.700;9.210;2023-02-28T03:39:46;3.65;;;2.53;;
32138;SDS011;18644;48.700;9.210;2023-02-28T03:44:48;2.67;;;2.15;;
32138;SDS011;18644;48.700;9.210;2023-02-28T03:47:20;3.65;;;2.30;;
32138;SDS011;18644;48.700;9.210;2023-02-28T03:49:53;3.03;;;2.25;;
32138;SDS011;18644;48.700;9.210;2023-02-28T03:52:27;3.80;;;2.83;;
32138;SDS011;18644;48.700;9.210;2023-02-28T03:54:59;2.65;;;2.20;;
32138;SDS011;18644;48.700;9.210;2023-02-28T03:57:32;4.40;;;2.65;;
32138;SDS011;18644;48.700;9.210;2023-02-28T04:00:07;3.80;;;2.42;;
32138;SDS011;18644;48.700;9.210;2023-02-28T04:02:40;4.88;;;2.70;;
32138;SDS011;18644;48.700;9.210;2023-02-28T04:05:07;3.60;;;2.55;;
32138;SDS011;18644;48.700;9.210;2023-02-28T04:07:36;5.82;;;2.83;;
32138;SDS011;18644;48.700;9.210;2023-02-28T04:10:03;3.00;;;2.55;;
32138;SDS011;18644;48.700;9.210;2023-02-28T04:12:32;4.13;;;2.58;;
32138;SDS011;18644;48.700;9.210;2023-02-28T04:14:59;6.85;;;3.10;;
32138;SDS011;18644;48.700;9.210;2023-02-28T04:17:26;3.83;;;2.42;;
32138;SDS011;18644;48.700;9.210;2023-02-28T04:19:52;4.60;;;2.83;;
32138;SDS011;18644;48.700;9.210;2023-02-28T04:22:22;5.55;;;3.35;;
32138;SDS011;18644;48.700;9.210;2023-02-28T04:24:52;4.15;;;2.55;;
32138;SDS011;18644;48.700;9.210;2023-02-28T04:27:19;5.90;;;3.30;;
32138;SDS011;18644;48.700;9.210;2023-02-28T04:29:46;3.67;;;2.63;;
32138;SDS011;18644;48.700;9.210;2023-02-28T04:32:13;3.97;;;3.03;;
32138;SDS011;18644;48.700;9.210;2023-02-28T04:34:40;3.35;;;2.63;;
32138;SDS011;18644;48.700;9.210;2023-02-28T04:37:07;4.07;;;2.70;;
32138;SDS011;18644;48.700;9.210;2023-02-28T04:39:34;3.47;;;2.42;;
32138;SDS011;18644;48.700;9.210;2023-02-28T04:42:03;4.72;;;2.58;;
32138;SDS011;18644;48.700;9.210;2023-02-28T04:44:30;4.10;;;2.72;;
32138;SDS011;18644;48.700;9.210;2023-02-28T04:46:57;2.70;;;2.17;;
32138;SDS011;18644;48.700;9.210;2023-02-28T04:49:24;5.43;;;2.92;;
32138;SDS011;18644;48.700;9.210;2023-02-28T04:51:51;5.22;;;2.92;;
32138;SDS011;18644;48.700;9.210;2023-02-28T04:54:18;3.42;;;2.80;;
32138;SDS011;18644;48.700;9.210;2023-02-28T04:56:45;5.65;;;3.40;;
32138;SDS011;18644;48.700;9.210;2023-02-28T04:59:16;3.90;;;2.45;;
32138;SDS011;18644;48.700;9.210;2023-02-28T05:01:45;4.25;;;3.00;;
32138;SDS011;18644;48.700;9.210;2023-02-28T05:04:14;4.53;;;2.97;;
32138;SDS011;18644;48.700;9.210;2023-02-28T05:06:42;3.75;;;2.47;;
32138;SDS011;18644;48.700;9.210;2023-02-28T05:09:09;3.42;;;2.63;;
32138;SDS011;18644;48.700;9.210;2023-02-28T05:11:37;4.38;;;3.08;;
32138;SDS011;18644;48.700;9.210;2023-02-28T05:14:05;6.10;;;3.20;;
32138;SDS011;18644;48.700;9.210;2023-02-28T05:16:38;5.57;;;3.10;;
32138;SDS011;18644;48.700;9.210;2023-02-28T05:19:05;4.60;;;3.28;;
32138;SDS011;18644;48.700;9.210;2023-02-28T05:21:32;5.75;;;3.35;;
32138;SDS011;18644;48.700;9.210;2023-02-28T05:24:02;4.53;;;3.45;;
32138;SDS011;18644;48.700;9.210;2023-02-28T05:26:33;4.43;;;3.00;;
32138;SDS011;18644;48.700;9.210;2023-02-28T05:29:01;5.72;;;3.30;;
32138;SDS011;18644;48.700;9.210;2023-02-28T05:31:28;6.82;;;3.38;;
32138;SDS011;18644;48.700;9.210;2023-02-28T05:33:56;5.18;;;3.20;;
32138;SDS011;18644;48.700;9.210;2023-02-28T05:36:23;5.28;;;3.45;;
32138;SDS011;18644;48.700;9.210;2023-02-28T05:38:51;5.53;;;3.17;;
32138;SDS011;18644;48.700;9.210;2023-02-28T05:41:18;5.32;;;3.58;;
32138;SDS011;18644;48.700;9.210;2023-02-28T05:43:46;7.38;;;3.58;;
32138;SDS011;18644;48.700;9.210;2023-02-28T05:46:13;5.00;;;3.33;;
32138;SDS011;18644;48.700;9.210;2023-02-28T05:48:42;4.72;;;3.10;;
32138;SDS011;18644;48.700;9.210;2023-02-28T05:51:13;4.80;;;3.08;;
32138;SDS011;18644;48.700;9.210;2023-02-28T05:53:41;4.93;;;3.20;;
32138;SDS011;18644;48.700;9.210;2023-02-28T05:56:08;3.50;;;2.92;;
32138;SDS011;18644;48.700;9.210;2023-02-28T05:58:34;5.97;;;3.40;;
32138;SDS011;18644;48.700;9.210;2023-02-28T06:03:56;7.20;;;4.03;;
32138;SDS011;18644;48.700;9.210;2023-02-28T06:06:27;4.93;;;3.50;;
32138;SDS011;18644;48.700;9.210;2023-02-28T06:08:55;7.55;;;3.30;;
32138;SDS011;18644;48.700;9.210;2023-02-28T06:11:22;6.25;;;3.30;;
32138;SDS011;18644;48.700;9.210;2023-02-28T06:13:53;7.50;;;3.70;;
32138;SDS011;18644;48.700;9.210;2023-02-28T06:16:21;7.07;;;3.30;;
32138;SDS011;18644;48.700;9.210;2023-02-28T06:18:48;5.03;;;3.72;;
32138;SDS011;18644;48.700;9.210;2023-02-28T06:21:15;5.05;;;3.55;;
32138;SDS011;18644;48.700;9.210;2023-02-28T06:23:43;5.68;;;3.35;;
32138;SDS011;18644;48.700;9.210;2023-02-28T06:26:11;4.97;;;3.47;;
32138;SDS011;18644;48.700;9.210;2023-02-28T06:28:37;9.30;;;3.90;;
32138;SDS011;18644;48.700;9.210;2023-02-28T06:31:06;4.32;;;3.45;;
32138;SDS011;18644;48.700;9.210;2023-02-28T06:33:34;4.88;;;3.65;;
32138;SDS011;18644;48.700;9.210;2023-02-28T06:36:01;6.10;;;4.07;;
32138;SDS011;18644;48.700;9.210;2023-02-28T06:38:29;10.93;;;4.22;;
32138;SDS011;18644;48.700;9.210;2023-02-28T06:40:59;6.28;;;4.15;;
32138;SDS011;18644;48.700;9.210;2023-02-28T06:43:28;5.60;;;3.95;;
32138;SDS011;18644;48.700;9.210;2023-02-28T06:45:58;6.50;;;3.80;;
32138;SDS011;18644;48.700;9.210;2023-02-28T06:48:27;6.38;;;4.35;;
32138;SDS011;18644;48.700;9.210;2023-02-28T06:51:00;8.05;;;4.07;;
32138;SDS011;18644;48.700;9.210;2023-02-28T06:53:28;8.40;;;4.65;;
32138;SDS011;18644;48.700;9.210;2023-02-28T06:55:56;5.95;;;4.30;;
32138;SDS011;18644;48.700;9.210;2023-02-28T06:58:24;8.43;;;4.30;;
32138;SDS011;18644;48.700;9.210;2023-02-28T07:00:51;7.50;;;4.63;;
32138;SDS011;18644;48.700;9.210;2023-02-28T07:03:19;7.10;;;4.45;;
32138;SDS011;18644;48.700;9.210;2023-02-28T07:05:46;7.32;;;4.68;;
32138;SDS011;18644;48.700;9.210;2023-02-28T07:08:13;6.65;;;4.03;;
32138;SDS011;18644;48.700;9.210;2023-02-28T07:10:41;6.10;;;4.40;;
32138;SDS011;18644;48.700;9.210;2023-02-28T07:13:08;6.07;;;4.55;;
32138;SDS011;18644;48.700;9.210;2023-02-28T07:15:37;5.15;;;3.67;;
32138;SDS011;18644;48.700;9.210;2023-02-28T07:18:04;6.40;;;4.00;;
32138;SDS011;18644;48.700;9.210;2023-02-28T07:20:31;8.55;;;4.60;;
32138;SDS011;18644;48.700;9.210;2023-02-28T07:22:58;6.63;;;4.90;;
32138;SDS011;18644;48.700;9.210;2023-02-28T07:25:26;8.50;;;5.07;;
32138;SDS011;18644;48.700;9.210;2023-02-28T07:27:54;8.00;;;4.57;;
32138;SDS011;18644;48.700;9.210;2023-02-28T07:30:24;7.57;;;4.53;;
32138;SDS011;18644;48.700;9.210;2023-02-28T07:32:52;6.15;;;4.03;;
32138;SDS011;18644;48.700;9.210;2023-02-28T07:35:21;5.70;;;4.15;;
32138;SDS011;18644;48.700;9.210;2023-02-28T07:37:47;8.27;;;5.05;;
32138;SDS011;18644;48.700;9.210;2023-02-28T07:40:15;7.05;;;4.45;;
32138;SDS011;18644;48.700;9.210;2023-02-28T07:42:43;9.68;;;4.65;;
32138;SDS011;18644;48.700;9.210;2023-02-28T07:45:11;6.93;;;4.38;;
32138;SDS011;18644;48.700;9.210;2023-02-28T07:47:38;7.15;;;5.13;;
32138;SDS011;18644;48.700;9.210;2023-02-28T07:50:07;7.07;;;4.38;;
32138;SDS011;18644;48.700;9.210;2023-02-28T07:52:37;8.70;;;4.60;;
32138;SDS011;18644;48.700;9.210;2023-02-28T07:55:06;9.98;;;4.85;;
32138;SDS011;18644;48.700;9.210;2023-02-28T07:57:35;6.57;;;4.90;;
32138;SDS011;18644;48.700;9.210;2023-02-28T08:00:02;11.13;;;5.10;;
32138;SDS011;18644;48.700;9.210;2023-02-28T08:02:30;9.10;;;4.50;;
32138;SDS011;18644;48.700;9.210;2023-02-28T08:04:57;7.15;;;4.85;;
32138;SDS011;18644;48.700;9.210;2023-02-28T08:07:27;8.55;;;5.10;;
32138;SDS011;18644;48.700;9.210;2023-02-28T08:09:54;7.68;;;4.72;;
32138;SDS011;18644;48.700;9.210;2023-02-28T08:12:21;7.40;;;4.93;;
32138;SDS011;18644;48.700;9.210;2023-02-28T08:14:48;7.60;;;4.75;;
32138;SDS011;18644;48.700;9.210;2023-02-28T08:17:14;7.82;;;5.07;;
32138;SDS011;18644;48.700;9.210;2023-02-28T08:19:41;5.88;;;4.57;;
32138;SDS011;18644;48.700;9.210;2023-02-28T08:22:08;7.05;;;4.72;;
32138;SDS011;18644;48.700;9.210;2023-02-28T08:24:36;8.57;;;5.50;;
32138;SDS011;18644;48.700;9.210;2023-02-28T08:27:04;8.63;;;4.68;;
32138;SDS011;18644;48.700;9.210;2023-02-28T08:29:31;8.50;;;5.15;;
32138;SDS011;18644;48.700;9.210;2023-02-28T08:31:57;7.07;;;4.53;;
32138;SDS011;18644;48.700;9.210;2023-02-28T08:34:24;6.85;;;4.80;;
32138;SDS011;18644;48.700;9.210;2023-02-28T08:36:52;9.07;;;5.32;;
32138;SDS011;18644;48.700;9.210;2023-02-28T08:39:18;6.97;;;4.75;;
32138;SDS011;18644;48.700;9.210;2023-02-28T08:41:47;7.65;;;4.95;;
32138;SDS011;18644;48.700;9.210;2023-02-28T08:44:14;7.97;;;4.60;;
32138;SDS011;18644;48.700;9.210;2023-02-28T08:46:41;7.45;;;4.78;;
32138;SDS011;18644;48.700;9.210;2023-02-28T08:49:09;7.95;;;5.00;;
32138;SDS011;18644;48.700;9.210;2023-02-28T08:51:38;6.95;;;4.47;;
32138;SDS011;18644;48.700;9.210;2023-02-28T08:54:05;7.32;;;4.75;;
32138;SDS011;18644;48.700;9.210;2023-02-28T08:56:32;8.52;;;5.20;;
32138;SDS011;18644;48.700;9.210;2023-02-28T08:59:00;7.18;;;4.90;;
32138;SDS011;18644;48.700;9.210;2023-02-28T09:01:28;8.50;;;4.55;;
32138;SDS011;18644;48.700;9.210;2023-02-28T09:03:56;7.57;;;5.10;;
32138;SDS011;18644;48.700;9.210;2023-02-28T09:06:25;7.80;;;4.95;;
32138;SDS011;18644;48.700;9.210;2023-02-28T09:08:55;6.10;;;4.80;;
32138;SDS011;18644;48.700;9.210;2023-02-28T09:11:24;7.20;;;4.87;;
32138;SDS011;18644;48.700;9.210;2023-02-28T09:13:52;6.72;;;4.53;;
32138;SDS011;18644;48.700;9.210;2023-02-28T09:16:25;7.90;;;5.13;;
32138;SDS011;18644;48.700;9.210;2023-02-28T09:18:52;8.18;;;5.60;;
32138;SDS011;18644;48.700;9.210;2023-02-28T09:21:19;9.00;;;5.30;;
32138;SDS011;18644;48.700;9.210;2023-02-28T09:23:48;8.88;;;4.78;;
32138;SDS011;18644;48.700;9.210;2023-02-28T09:26:20;8.85;;;4.80;;
32138;SDS011;18644;48.700;9.210;2023-02-28T09:28:49;8.75;;;5.15;;
32138;SDS011;18644;48.700;9.210;2023-02-28T09:31:18;8.55;;;5.07;;
32138;SDS011;18644;48.700;9.210;2023-02-28T09:36:20;6.78;;;4.60;;
32138;SDS011;18644;48.700;9.210;2023-02-28T09:38:48;7.15;;;5.03;;
32138;SDS011;18644;48.700;9.210;2023-02-28T09:41:19;9.80;;;5.00;;
32138;SDS011;18644;48.700;9.210;2023-02-28T09:43:49;7.30;;;4.93;;
32138;SDS011;18644;48.700;9.210;2023-02-28T09:46:30;8.07;;;4.93;;
32138;SDS011;18644;48.700;9.210;2023-02-28T09:49:02;8.32;;;5.20;;
32138;SDS011;18644;48.700;9.210;2023-02-28T09:54:11;7.68;;;5.20;;
32138;SDS011;18644;48.700;9.210;2023-02-28T09:56:44;6.68;;;5.00;;
32138;SDS011;18644;48.700;9.210;2023-02-28T09:59:15;6.32;;;4.60;;
32138;SDS011;18644;48.700;9.210;2023-02-28T10:01:57;9.63;;;4.95;;
32138;SDS011;18644;48.700;9.210;2023-02-28T10:04:39;9.20;;;5.60;;
32138;SDS011;18644;48.700;9.210;2023-02-28T10:07:18;7.88;;;5.32;;
32138;SDS011;18644;48.700;9.210;2023-02-28T10:10:02;7.20;;;5.20;;
32138;SDS011;18644;48.700;9.210;2023-02-28T10:12:44;6.63;;;4.90;;
32138;SDS011;18644;48.700;9.210;2023-02-28T10:15:13;8.88;;;5.45;;
32138;SDS011;18644;48.700;9.210;2023-02-28T10:17:43;7.65;;;5.45;;
32138;SDS011;18644;48.700;9.210;2023-02-28T10:20:15;7.25;;;5.30;;
32138;SDS011;18644;48.700;9.210;2023-02-28T10:22:51;6.63;;;4.97;;
32138;SDS011;18644;48.700;9.210;2023-02-28T10:25:24;8.63;;;4.88;;
32138;SDS011;18644;48.700;9.210;2023-02-28T10:27:54;9.05;;;5.38;;
32138;SDS011;18644;48.700;9.210;2023-02-28T10:30:30;6.88;;;4.85;;
32138;SDS011;18644;48.700;9.210;2023-02-28T10:32:57;8.77;;;5.70;;
32138;SDS011;18644;48.700;9.210;2023-02-28T10:35:26;8.93;;;5.18;;
32138;SDS011;18644;48.700;9.210;2023-02-28T10:37:54;8.60;;;5.30;;
32138;SDS011;18644;48.700;9.210;2023-02-28T10:40:29;9.43;;;5.38;;
32138;SDS011;18644;48.700;9.210;2023-02-28T10:43:01;7.65;;;5.53;;
32138;SDS011;18644;48.700;9.210;2023-02-28T10:45:31;8.32;;;5.47;;
32138;SDS011;18644;48.700;9.210;2023-02-28T10:48:02;8.45;;;5.82;;
32138;SDS011;18644;48.700;9.210;2023-02-28T10:50:37;8.00;;;5.65;;
32138;SDS011;18644;48.700;9.210;2023-02-28T10:56:15;7.70;;;5.40;;
32138;SDS011;18644;48.700;9.210;2023-02-28T10:58:47;9.05;;;5.65;;
32138;SDS011;18644;48.700;9.210;2023-02-28T11:01:18;7.13;;;5.13;;
32138;SDS011;18644;48.700;9.210;2023-02-28T11:03:48;6.43;;;5.00;;
32138;SDS011;18644;48.700;9.210;2023-02-28T11:06:18;9.80;;;6.07;;
32138;SDS011;18644;48.700;9.210;2023-02-28T11:08:49;7.18;;;4.80;;
32138;SDS011;18644;48.700;9.210;2023-02-28T11:11:20;9.00;;;5.85;;
32138;SDS011;18644;48.700;9.210;2023-02-28T11:13:51;7.20;;;4.57;;
32138;SDS011;18644;48.700;9.210;2023-02-28T11:16:21;6.70;;;5.20;;
32138;SDS011;18644;48.700;9.210;2023-02-28T11:18:59;7.05;;;4.97;;
32138;SDS011;18644;48.700;9.210;2023-02-28T11:21:28;7.53;;;5.45;;
32138;SDS011;18644;48.700;9.210;2023-02-28T11:24:02;8.05;;;5.93;;
32138;SDS011;18644;48.700;9.210;2023-02-28T11:26:41;7.30;;;5.22;;
32138;SDS011;18644;48.700;9.210;2023-02-28T11:29:12;7.70;;;5.15;;
32138;SDS011;18644;48.700;9.210;2023-02-28T11:34:44;7.43;;;5.30;;
32138;SDS011;18644;48.700;9.210;2023-02-28T11:37:14;6.57;;;4.55;;
32138;SDS011;18644;48.700;9.210;2023-02-28T11:39:44;8.90;;;5.55;;
32138;SDS011;18644;48.700;9.210;2023-02-28T11:42:19;6.68;;;4.82;;
32138;SDS011;18644;48.700;9.210;2023-02-28T11:45:18;7.65;;;5.15;;
32138;SDS011;18644;48.700;9.210;2023-02-28T11:48:11;6.63;;;4.85;;
32138;SDS011;18644;48.700;9.210;2023-02-28T11:50:50;5.85;;;4.68;;
32138;SDS011;18644;48.700;9.210;2023-02-28T11:53:45;6.80;;;5.18;;
32138;SDS011;18644;48.700;9.210;2023-02-28T11:56:31;8.52;;;5.53;;
32138;SDS011;18644;48.700;9.210;2023-02-28T11:59:22;7.50;;;5.97;;
32138;SDS011;18644;48.700;9.210;2023-02-28T12:02:23;8.52;;;5.38;;
32138;SDS011;18644;48.700;9.210;2023-02-28T12:04:58;7.32;;;5.45;;
32138;SDS011;18644;48.700;9.210;2023-02-28T12:07:46;6.88;;;5.00;;
32138;SDS011;18644;48.700;9.210;2023-02-28T12:10:26;7.03;;;5.28;;
32138;SDS011;18644;48.700;9.210;2023-02-28T12:13:05;10.13;;;6.40;;
32138;SDS011;18644;48.700;9.210;2023-02-28T12:15:49;7.80;;;5.40;;
32138;SDS011;18644;48.700;9.210;2023-02-28T12:18:52;8.93;;;5.38;;
32138;SDS011;18644;48.700;9.210;2023-02-28T12:21:31;6.35;;;5.00;;
32138;SDS011;18644;48.700;9.210;2023-02-28T12:24:30;6.70;;;4.90;;
32138;SDS011;18644;48.700;9.210;2023-02-28T12:27:19;6.28;;;4.50;;
32138;SDS011;18644;48.700;9.210;2023-02-28T12:29:51;7.85;;;5.10;;
32138;SDS011;18644;48.700;9.210;2023-02-28T12:32:25;7.95;;;5.40;;
32138;SDS011;18644;48.700;9.210;2023-02-28T12:34:57;6.18;;;4.72;;
32138;SDS011;18644;48.700;9.210;2023-02-28T12:37:29;7.95;;;4.85;;
32138;SDS011;18644;48.700;9.210;2023-02-28T12:40:04;7.82;;;4.80;;
32138;SDS011;18644;48.700;9.210;2023-02-28T12:42:42;9.07;;;5.72;;
32138;SDS011;18644;48.700;9.210;2023-02-28T12:45:13;6.30;;;4.85;;
32138;SDS011;18644;48.700;9.210;2023-02-28T12:47:45;7.75;;;5.18;;
32138;SDS011;18644;48.700;9.210;2023-02-28T12:50:18;6.95;;;5.28;;
32138;SDS011;18644;48.700;9.210;2023-02-28T12:52:48;6.70;;;5.30;;
32138;SDS011;18644;48.700;9.210;2023-02-28T12:55:21;5.78;;;4.57;;
32138;SDS011;18644;48.700;9.210;2023-02-28T12:57:58;6.45;;;5.07;;
32138;SDS011;18644;48.700;9.210;2023-02-28T13:00:35;6.90;;;4.85;;
32138;SDS011;18644;48.700;9.210;2023-02-28T13:03:22;6.47;;;4.93;;
32138;SDS011;18644;48.700;9.210;2023-02-28T13:09:21;8.50;;;5.25;;
32138;SDS011;18644;48.700;9.210;2023-02-28T13:11:48;6.60;;;4.85;;
32138;SDS011;18644;48.700;9.210;2023-02-28T13:14:22;5.43;;;4.50;;
32138;SDS011;18644;48.700;9.210;2023-02-28T13:17:02;9.23;;;5.75;;
32138;SDS011;18644;48.700;9.210;2023-02-28T13:19:38;7.90;;;5.47;;
32138;SDS011;18644;48.700;9.210;2023-02-28T13:22:15;7.00;;;5.65;;
32138;SDS011;18644;48.700;9.210;2023-02-28T13:24:46;6.13;;;4.68;;
32138;SDS011;18644;48.700;9.210;2023-02-28T13:30:02;6.60;;;5.15;;
32138;SDS011;18644;48.700;9.210;2023-02-28T13:33:28;6.80;;;5.00;;
32138;SDS011;18644;48.700;9.210;2023-02-28T13:36:01;6.47;;;4.93;;
32138;SDS011;18644;48.700;9.210;2023-02-28T13:38:39;6.90;;;5.10;;
32138;SDS011;18644;48.700;9.210;2023-02-28T13:52:42;5.82;;;4.15;;
32138;SDS011;18644;48.700;9.210;2023-02-28T13:55:24;7.03;;;5.10;;
32138;SDS011;18644;48.700;9.210;2023-02-28T13:57:58;7.80;;;5.07;;
32138;SDS011;18644;48.700;9.210;2023-02-28T14:00:43;7.55;;;5.35;;
32138;SDS011;18644;48.700;9.210;2023-02-28T14:03:31;7.13;;;5.50;;
32138;SDS011;18644;48.700;9.210;2023-02-28T14:06:19;6.35;;;5.10;;
32138;SDS011;18644;48.700;9.210;2023-02-28T14:08:52;7.93;;;5.93;;
32138;SDS011;18644;48.700;9.210;2023-02-28T14:11:25;9.05;;;5.88;;
32138;SDS011;18644;48.700;9.210;2023-02-28T14:13:56;8.23;;;5.00;;
32138;SDS011;18644;48.700;9.210;2023-02-28T14:16:24;6.88;;;5.18;;
32138;SDS011;18644;48.700;9.210;2023-02-28T14:18:56;7.47;;;4.90;;
32138;SDS011;18644;48.700;9.210;2023-02-28T14:21:27;9.13;;;5.82;;
32138;SDS011;18644;48.700;9.210;2023-02-28T14:27:24;20.40;;;5.15;;
32138;SDS011;18644;48.700;9.210;2023-02-28T14:36:03;6.07;;;4.85;;
32138;SDS011;18644;48.700;9.210;2023-02-28T14:38:44;6.88;;;5.10;;
32138;SDS011;18644;48.700;9.210;2023-02-28T14:41:17;6.15;;;4.45;;
32138;SDS011;18644;48.700;9.210;2023-02-28T14:43:49;6.18;;;4.53;;
32138;SDS011;18644;48.700;9.210;2023-02-28T14:46:20;6.57;;;4.85;;
32138;SDS011;18644;48.700;9.210;2023-02-28T14:48:49;6.50;;;4.75;;
32138;SDS011;18644;48.700;9.210;2023-02-28T14:51:20;6.97;;;5.07;;
32138;SDS011;18644;48.700;9.210;2023-02-28T14:53:55;8.00;;;5.40;;
32138;SDS011;18644;48.700;9.210;2023-02-28T14:56:24;8.00;;;5.25;;
32138;SDS011;18644;48.700;9.210;2023-02-28T14:58:55;6.53;;;4.80;;
32138;SDS011;18644;48.700;9.210;2023-02-28T15:01:23;7.32;;;5.50;;
32138;SDS011;18644;48.700;9.210;2023-02-28T15:03:58;10.50;;;6.00;;
32138;SDS011;18644;48.700;9.210;2023-02-28T15:06:28;6.13;;;4.68;;
32138;SDS011;18644;48.700;9.210;2023-02-28T15:09:10;7.03;;;5.50;;
32138;SDS011;18644;48.700;9.210;2023-02-28T15:11:41;8.77;;;4.95;;
32138;SDS011;18644;48.700;9.210;2023-02-28T15:14:17;6.05;;;4.65;;
32138;SDS011;18644;48.700;9.210;2023-02-28T15:16:48;6.13;;;4.88;;
32138;SDS011;18644;48.700;9.210;2023-02-28T15:19:20;6.07;;;4.78;;
32138;SDS011;18644;48.700;9.210;2023-02-28T15:21:50;6.73;;;4.87;;
32138;SDS011;18644;48.700;9.210;2023-02-28T15:24:25;8.18;;;5.32;;
32138;SDS011;18644;48.700;9.210;2023-02-28T15:27:03;9.15;;;4.72;;
32138;SDS011;18644;48.700;9.210;2023-02-28T15:29:33;5.72;;;4.68;;
32138;SDS011;18644;48.700;9.210;2023-02-28T15:32:19;7.53;;;5.35;;
32138;SDS011;18644;48.700;9.210;2023-02-28T15:34:53;6.80;;;4.80;;
32138;SDS011;18644;48.700;9.210;2023-02-28T15:37:28;8.25;;;5.35;;
32138;SDS011;18644;48.700;9.210;2023-02-28T15:40:16;6.22;;;4.70;;
32138;SDS011;18644;48.700;9.210;2023-02-28T15:43:03;7.22;;;5.15;;
32138;SDS011;18644;48.700;9.210;2023-02-28T15:45:33;8.55;;;5.25;;
32138;SDS011;18644;48.700;9.210;2023-02-28T15:48:09;7.65;;;5.25;;
32138;SDS011;18644;48.700;9.210;2023-02-28T15:50:47;6.80;;;5.15;;
32138;SDS011;18644;48.700;9.210;2023-02-28T15:53:19;6.65;;;4.47;;
32138;SDS011;18644;48.700;9.210;2023-02-28T15:56:00;6.80;;;4.88;;
32138;SDS011;18644;48.700;9.210;2023-02-28T15:58:30;8.15;;;5.13;;
32138;SDS011;18644;48.700;9.210;2023-02-28T16:01:06;7.93;;;5.05;;
32138;SDS011;18644;48.700;9.210;2023-02-28T16:03:44;9.23;;;5.78;;
32138;SDS011;18644;48.700;9.210;2023-02-28T16:06:23;7.50;;;5.32;;
32138;SDS011;18644;48.700;9.210;2023-02-28T16:09:04;6.68;;;4.80;;
32138;SDS011;18644;48.700;9.210;2023-02-28T16:11:37;6.63;;;5.15;;